createdAt,value
2022-11-27T00:02:18.144Z,4.80
2022-11-27T00:07:20.982Z,4.66
2022-11-27T00:12:25.082Z,4.46
2022-11-27T00:17:27.845Z,4.36
2022-11-27T00:22:30.545Z,4.37
2022-11-27T00:27:34.525Z,4.38
2022-11-27T00:32:37.289Z,4.48
2022-11-27T00:37:40.010Z,4.40
2022-11-27T00:42:44.049Z,4.32
2022-11-27T00:47:46.684Z,4.26
2022-11-27T00:52:49.399Z,4.21
2022-11-27T00:57:53.436Z,4.13
2022-11-27T01:02:56.159Z,4.07
2022-11-27T01:07:58.958Z,4.03
2022-11-27T01:13:03.034Z,4.03
2022-11-27T01:18:05.775Z,3.90
2022-11-27T01:23:08.857Z,3.82
2022-11-27T01:28:12.891Z,3.82
2022-11-27T01:33:15.790Z,3.78
2022-11-27T01:38:18.531Z,3.76
2022-11-27T01:43:41.895Z,3.72
2022-11-27T01:48:44.699Z,3.58
2022-11-27T01:53:47.695Z,3.62
2022-11-27T01:58:52.267Z,3.50
2022-11-27T02:03:56.003Z,3.43
2022-11-27T02:08:58.717Z,3.48
2022-11-27T02:14:09.359Z,3.49
2022-11-27T02:19:16.699Z,3.40
2022-11-27T02:24:33.454Z,3.32
2022-11-27T02:29:37.925Z,3.27
2022-11-27T02:34:46.784Z,3.22
2022-11-27T02:39:53.087Z,3.16
2022-11-27T02:45:01.100Z,3.22
2022-11-27T02:50:04.506Z,3.03
2022-11-27T02:55:09.786Z,3.00
2022-11-27T03:00:15.342Z,2.97
2022-11-27T03:05:21.002Z,2.90
2022-11-27T03:10:28.411Z,2.97
2022-11-27T03:15:38.653Z,2.86
2022-11-27T03:20:42.438Z,2.95
2022-11-27T03:25:45.159Z,2.91
2022-11-27T03:30:49.249Z,2.87
2022-11-27T03:35:53.302Z,2.83
2022-11-27T03:41:02.575Z,2.83
2022-11-27T03:46:11.021Z,2.77
2022-11-27T03:51:20.404Z,2.75
2022-11-27T03:56:31.081Z,2.77
2022-11-27T04:01:35.480Z,2.69
2022-11-27T04:06:38.251Z,2.58
2022-11-27T04:11:40.963Z,2.54
2022-11-27T04:16:45.088Z,2.47
2022-11-27T04:21:47.785Z,2.46
2022-11-27T04:26:50.541Z,2.48
2022-11-27T04:31:54.641Z,2.48
2022-11-27T04:36:57.420Z,2.49
2022-11-27T04:42:00.097Z,2.42
2022-11-27T04:47:04.319Z,2.38
2022-11-27T04:52:07.139Z,2.45
2022-11-27T04:57:09.897Z,2.32
2022-11-27T05:02:14.014Z,2.39
2022-11-27T05:07:16.757Z,2.37
2022-11-27T05:12:19.499Z,2.27
2022-11-27T05:17:23.583Z,2.34
2022-11-27T05:22:26.357Z,2.31
2022-11-27T05:27:29.054Z,2.31
2022-11-27T05:32:33.218Z,2.30
2022-11-27T05:37:36.078Z,2.19
2022-11-27T05:42:38.812Z,2.23
2022-11-27T05:47:42.961Z,2.22
2022-11-27T05:52:46.712Z,2.27
2022-11-27T05:57:49.436Z,2.26
2022-11-27T06:02:53.749Z,2.23
2022-11-27T06:07:56.591Z,2.26
2022-11-27T06:12:59.352Z,2.25
2022-11-27T06:18:03.503Z,2.18
2022-11-27T06:23:06.165Z,2.18
2022-11-27T06:28:09.430Z,2.16
2022-11-27T06:33:13.462Z,2.18
2022-11-27T06:38:16.124Z,2.09
2022-11-27T06:43:18.839Z,2.03
2022-11-27T06:48:22.929Z,2.12
2022-11-27T06:53:25.783Z,2.16
2022-11-27T06:58:31.196Z,2.18
2022-11-27T07:03:35.973Z,2.18
2022-11-27T07:08:38.786Z,2.13
2022-11-27T07:13:41.586Z,2.12
2022-11-27T07:18:46.958Z,2.19
2022-11-27T07:23:49.692Z,2.24
2022-11-27T07:28:52.798Z,2.25
2022-11-27T07:33:57.443Z,2.30
2022-11-27T07:39:00.281Z,2.34
2022-11-27T07:44:03.735Z,2.42
2022-11-27T07:49:07.994Z,2.44
2022-11-27T07:54:11.194Z,2.51
2022-11-27T07:59:14.020Z,2.55
2022-11-27T08:04:18.257Z,2.59
2022-11-27T08:09:21.040Z,2.77
2022-11-27T08:14:23.908Z,2.83
2022-11-27T08:19:28.275Z,2.82
2022-11-27T08:24:31.173Z,2.93
2022-11-27T08:29:34.207Z,2.98
2022-11-27T08:34:38.905Z,3.07
2022-11-27T08:39:41.942Z,3.15
2022-11-27T08:44:44.693Z,3.21
2022-11-27T08:49:48.700Z,3.29
2022-11-27T08:54:56.076Z,3.36
2022-11-27T09:00:00.405Z,3.36
2022-11-27T09:05:06.159Z,3.53
2022-11-27T09:10:09.428Z,3.66
2022-11-27T09:15:12.657Z,3.73
2022-11-27T09:20:16.910Z,3.81
2022-11-27T09:25:19.666Z,3.92
2022-11-27T09:30:22.626Z,4.01
2022-11-27T09:35:26.832Z,4.14
2022-11-27T09:40:29.756Z,4.27
2022-11-27T09:45:32.908Z,4.47
2022-11-27T09:50:40.420Z,4.79
2022-11-27T09:55:45.743Z,4.93
2022-11-27T10:00:49.088Z,4.97
2022-11-27T10:06:02.070Z,5.02
2022-11-27T10:11:13.475Z,5.11
2022-11-27T10:16:23.531Z,5.35
2022-11-27T10:21:34.331Z,5.36
2022-11-27T10:26:40.114Z,5.40
2022-11-27T10:31:48.704Z,5.37
2022-11-27T10:36:53.323Z,5.61
2022-11-27T10:41:59.867Z,5.81
2022-11-27T10:47:03.953Z,5.81
2022-11-27T10:52:13.463Z,5.83
2022-11-27T10:57:26.201Z,6.01
2022-11-27T11:02:30.939Z,6.19
2022-11-27T11:07:35.107Z,6.26
2022-11-27T11:12:37.841Z,6.35
2022-11-27T11:17:40.854Z,6.41
2022-11-27T11:22:47.968Z,6.75
2022-11-27T11:27:52.339Z,6.75
2022-11-27T11:33:01.621Z,6.82
2022-11-27T11:38:07.655Z,6.90
2022-11-27T11:43:25.023Z,6.99
2022-11-27T11:48:28.672Z,6.96
2022-11-27T11:53:36.289Z,7.00
2022-11-27T11:58:47.836Z,7.11
2022-11-27T12:04:04.110Z,7.13
2022-11-27T12:09:17.066Z,7.20
2022-11-27T12:14:27.155Z,7.26
2022-11-27T12:19:47.542Z,7.37
2022-11-27T12:24:57.354Z,7.36
2022-11-27T12:30:06.972Z,7.51
2022-11-27T12:35:25.260Z,7.51
2022-11-27T12:40:43.690Z,7.50
2022-11-27T12:45:50.020Z,7.56
2022-11-27T12:50:56.164Z,7.61
2022-11-27T12:56:05.090Z,7.75
2022-11-27T13:01:11.255Z,7.91
2022-11-27T13:06:15.212Z,8.41
2022-11-27T13:11:21.507Z,8.32
2022-11-27T13:16:25.099Z,8.38
2022-11-27T13:21:30.858Z,8.01
2022-11-27T13:26:37.835Z,7.88
2022-11-27T13:31:40.779Z,8.00
2022-11-27T13:36:45.772Z,7.80
2022-11-27T13:41:50.323Z,7.91
2022-11-27T13:46:55.799Z,7.79
2022-11-27T13:52:10.775Z,7.73
2022-11-27T13:57:17.194Z,7.74
2022-11-27T14:02:19.995Z,7.96
2022-11-27T14:07:22.802Z,7.92
2022-11-27T14:12:28.616Z,7.83
2022-11-27T14:17:39.530Z,7.83
2022-11-27T14:23:07.516Z,7.74
2022-11-27T14:28:15.232Z,7.60
2022-11-27T14:33:20.215Z,7.64
2022-11-27T14:38:24.047Z,7.76
2022-11-27T14:43:28.137Z,7.67
2022-11-27T14:48:35.642Z,7.73
2022-11-27T14:53:38.468Z,7.69
2022-11-27T14:58:49.396Z,7.67
2022-11-27T15:03:59.277Z,7.75
2022-11-27T15:09:30.149Z,7.57
2022-11-27T15:14:27.138Z,7.62
2022-11-27T15:19:32.524Z,7.56
2022-11-27T15:24:37.183Z,7.54
2022-11-27T15:29:42.832Z,7.55
2022-11-27T15:34:46.114Z,7.49
2022-11-27T15:39:51.740Z,7.51
2022-11-27T15:44:56.884Z,7.47
2022-11-27T15:49:59.907Z,7.45
2022-11-27T15:55:02.685Z,7.35
2022-11-27T16:00:09.973Z,7.34
2022-11-27T16:05:15.410Z,7.33
2022-11-27T16:10:18.285Z,7.17
2022-11-27T16:15:23.539Z,7.30
2022-11-27T16:20:28.192Z,7.22
2022-11-27T16:25:30.999Z,7.16
2022-11-27T16:30:36.534Z,7.16
2022-11-27T16:35:39.481Z,7.12
2022-11-27T16:40:42.733Z,7.26
2022-11-27T16:45:47.010Z,7.22
2022-11-27T16:50:49.923Z,7.50
2022-11-27T16:55:52.906Z,7.61
2022-11-27T17:00:57.346Z,7.75
2022-11-27T17:06:00.142Z,7.81
2022-11-27T17:11:08.767Z,7.76
2022-11-27T17:16:13.063Z,7.56
2022-11-27T17:21:18.191Z,7.45
2022-11-27T17:26:23.534Z,7.40
2022-11-27T17:31:32.559Z,7.63
2022-11-27T17:36:37.505Z,7.61
2022-11-27T17:41:41.761Z,7.54
2022-11-27T17:46:49.871Z,7.73
2022-11-27T17:51:53.410Z,7.55
2022-11-27T17:56:56.948Z,7.62
2022-11-27T18:02:01.427Z,7.55
2022-11-27T18:07:04.284Z,7.50
2022-11-27T18:12:08.488Z,7.44
2022-11-27T18:17:17.096Z,7.44
2022-11-27T18:22:19.967Z,7.35
2022-11-27T18:27:22.910Z,7.31
2022-11-27T18:32:27.379Z,7.24
2022-11-27T18:37:30.263Z,7.16
2022-11-27T18:42:33.526Z,7.02
2022-11-27T18:47:38.317Z,6.97
2022-11-27T18:52:41.332Z,6.94
2022-11-27T18:57:44.154Z,6.90
2022-11-27T19:02:48.564Z,6.87
2022-11-27T19:07:51.458Z,6.79
2022-11-27T19:12:54.639Z,6.73
2022-11-27T19:17:59.105Z,6.64
2022-11-27T19:23:02.200Z,6.54
2022-11-27T19:28:05.665Z,6.49
2022-11-27T19:33:09.974Z,6.47
2022-11-27T19:38:13.013Z,6.40
2022-11-27T19:43:15.744Z,6.41
2022-11-27T19:48:23.305Z,6.43
2022-11-27T19:53:26.732Z,6.47
2022-11-27T19:58:29.543Z,6.50
2022-11-27T20:03:35.398Z,6.50
2022-11-27T20:08:38.652Z,6.51
2022-11-27T20:13:41.544Z,6.51
2022-11-27T20:18:45.678Z,6.53
2022-11-27T20:23:49.620Z,6.54
2022-11-27T20:28:53.202Z,6.46
2022-11-27T20:34:00.550Z,6.40
2022-11-27T20:39:03.365Z,6.34
2022-11-27T20:44:06.503Z,6.28
2022-11-27T20:49:11.717Z,6.14
2022-11-27T20:54:14.451Z,6.10
2022-11-27T20:59:18.055Z,6.08
2022-11-27T21:04:25.094Z,5.99
2022-11-27T21:09:29.102Z,5.99
2022-11-27T21:14:31.941Z,5.92
2022-11-27T21:19:36.040Z,5.94
2022-11-27T21:24:38.955Z,5.95
2022-11-27T21:29:42.189Z,5.98
2022-11-27T21:34:46.573Z,5.98
2022-11-27T21:39:49.473Z,6.00
2022-11-27T21:44:52.269Z,5.98
2022-11-27T21:49:56.534Z,5.96
2022-11-27T21:54:59.332Z,5.90
2022-11-27T22:00:02.291Z,5.90
2022-11-27T22:05:16.303Z,5.88
2022-11-27T22:10:19.240Z,5.93
2022-11-27T22:15:22.023Z,5.93
2022-11-27T22:20:26.128Z,5.93
2022-11-27T22:25:29.296Z,5.95
2022-11-27T22:30:32.126Z,5.93
2022-11-27T22:35:36.362Z,5.94
2022-11-27T22:40:39.124Z,5.98
2022-11-27T22:45:47.662Z,5.98
2022-11-27T22:50:57.694Z,6.08
2022-11-27T22:56:05.417Z,6.07
2022-11-27T23:01:08.973Z,6.09
2022-11-27T23:06:14.638Z,6.06
2022-11-27T23:11:19.835Z,6.02
2022-11-27T23:16:23.063Z,6.09
2022-11-27T23:21:27.455Z,6.05
2022-11-27T23:26:30.440Z,6.02
2022-11-27T23:31:35.982Z,5.95
2022-11-27T23:36:40.365Z,5.98
2022-11-27T23:41:43.497Z,6.12
2022-11-27T23:46:46.238Z,6.09
2022-11-27T23:51:50.415Z,6.08
2022-11-27T23:56:53.680Z,6.11
